Time;durP1;ratioP1;P1;durP2;ratioP2;P2;SDS_P1;SDS_P2;PMS_P1;PMS_P2;Temp;Humidity;BMP_temperature;BMP_pressure;BME280_temperature;BME280_humidity;BME280_pressure;Samples;Min_cycle;Max_cycle;Signal;HPM_P1;HPM_P2
2022/01/24 00:02:26;;;;;;;;;;;19.70;38.40;;;;;;5075391;28;19924;-66
2022/01/24 00:04:51;;;;;;;;;;;19.80;38.40;;;;;;5093468;28;19908;-67
2022/01/24 00:07:20;;;;;;;;;;;19.80;38.40;;;;;;5093536;28;20000;-67
2022/01/24 00:09:46;;;;;;;;;;;19.70;38.40;;;;;;5093396;28;19943;-67
2022/01/24 00:12:17;;;;;;;;;;;19.70;38.30;;;;;;5093577;28;19915;-67
2022/01/24 00:15:05;;;;;;;;;;;19.70;38.40;;;;;;5094958;28;19912;-67
2022/01/24 00:17:37;;;;;;;;;;;19.70;38.40;;;;;;5097367;28;19908;-67
2022/01/24 00:28:06;;;;;;;;;;;19.70;38.40;;;;;;5097598;28;19974;-68
2022/01/24 00:30:32;;;;;;;;;;;19.70;38.40;;;;;;5097127;28;20387;-67
2022/01/24 00:32:57;;;;;;;;;;;19.70;38.50;;;;;;5096925;28;20355;-67
2022/01/24 00:35:23;;;;;;;;;;;19.70;38.40;;;;;;5078931;28;19912;-67
2022/01/24 00:37:48;;;;;;;;;;;19.70;38.40;;;;;;5097251;28;19908;-66
2022/01/24 00:40:14;;;;;;;;;;;19.70;38.40;;;;;;5097008;28;20372;-67
2022/01/24 00:42:51;;;;;;;;;;;19.70;38.30;;;;;;5078567;28;19920;-67
2022/01/24 00:45:29;;;;;;;;;;;19.70;38.30;;;;;;5097002;28;19908;-67
2022/01/24 00:55:54;;;;;;;;;;;19.70;38.40;;;;;;5096739;28;19919;-67
2022/01/24 00:58:20;;;;;;;;;;;19.70;38.40;;;;;;5096423;28;19916;-67
2022/01/24 01:00:45;;;;;;;;;;;19.70;38.30;;;;;;5096571;28;19915;-66
2022/01/24 01:03:11;;;;;;;;;;;19.70;38.30;;;;;;5078232;28;19916;-68
2022/01/24 01:05:53;;;;;;;;;;;19.70;38.40;;;;;;5096521;28;20342;-67
2022/01/24 01:18:57;;;;;;;;;;;19.60;38.30;;;;;;5096419;28;19953;-67
2022/01/24 01:21:22;;;;;;;;;;;19.70;38.30;;;;;;5078179;28;19908;-67
2022/01/24 01:23:52;;;;;;;;;;;19.60;38.30;;;;;;5096308;28;19923;-67
2022/01/24 01:26:29;;;;;;;;;;;19.60;38.20;;;;;;5096106;28;19908;-67
2022/01/24 01:29:03;;;;;;;;;;;19.60;38.30;;;;;;5096140;28;19916;-68
2022/01/24 01:40:38;;;;;;;;;;;19.70;38.30;;;;;;4994173;28;19945;-67
2022/01/24 01:56:08;;;;;;;;;;;19.60;38.20;;;;;;5095856;28;19908;-67
2022/01/24 01:58:33;;;;;;;;;;;19.60;38.30;;;;;;5095341;28;19929;-68
2022/01/24 02:00:59;;;;;;;;;;;19.60;38.30;;;;;;5095394;28;19908;-67
2022/01/24 02:03:25;;;;;;;;;;;19.60;38.30;;;;;;5077064;28;19916;-67
2022/01/24 02:05:51;;;;;;;;;;;19.60;38.30;;;;;;5095321;28;19935;-67
2022/01/24 02:08:18;;;;;;;;;;;19.60;38.30;;;;;;5095639;28;19908;-67
2022/01/24 02:10:44;;;;;;;;;;;19.60;38.30;;;;;;5095198;28;19912;-67
2022/01/24 02:13:10;;;;;;;;;;;19.60;38.20;;;;;;5095357;28;19912;-67
2022/01/24 02:15:59;;;;;;;;;;;19.60;38.30;;;;;;5095202;28;19908;-68
2022/01/24 02:18:35;;;;;;;;;;;19.60;38.30;;;;;;5095050;28;19912;-67
2022/01/24 02:21:26;;;;;;;;;;;19.60;38.30;;;;;;5095205;28;20010;-67
2022/01/24 02:23:51;;;;;;;;;;;19.60;38.30;;;;;;5094822;28;19916;-67
2022/01/24 02:26:20;;;;;;;;;;;19.60;38.20;;;;;;5094818;28;19914;-67
2022/01/24 02:29:11;;;;;;;;;;;19.60;38.20;;;;;;5094901;28;19908;-67
2022/01/24 02:31:41;;;;;;;;;;;19.60;38.30;;;;;;5095006;28;19977;-67
2022/01/24 02:34:19;;;;;;;;;;;19.60;38.20;;;;;;5095029;28;20267;-67
2022/01/24 02:36:45;;;;;;;;;;;19.60;38.20;;;;;;5094143;28;19961;-67
2022/01/24 02:50:15;;;;;;;;;;;19.60;38.30;;;;;;5094506;28;19915;-67
2022/01/24 02:52:40;;;;;;;;;;;19.60;38.20;;;;;;5094338;28;19947;-67
2022/01/24 02:55:06;;;;;;;;;;;19.50;38.20;;;;;;5094616;28;19970;-67
2022/01/24 02:57:31;;;;;;;;;;;19.60;38.20;;;;;;5094308;28;19953;-66
2022/01/24 02:59:57;;;;;;;;;;;19.60;38.20;;;;;;5094098;28;19926;-67
2022/01/24 03:02:22;;;;;;;;;;;19.60;38.20;;;;;;5076102;28;19999;-68
2022/01/24 03:04:48;;;;;;;;;;;19.60;38.20;;;;;;5094190;28;19908;-67
2022/01/24 03:07:13;;;;;;;;;;;19.60;38.20;;;;;;5075974;28;20341;-67
2022/01/24 03:09:40;;;;;;;;;;;19.60;38.20;;;;;;5094127;28;20291;-67
2022/01/24 03:12:11;;;;;;;;;;;19.60;38.20;;;;;;5094035;28;20359;-67
2022/01/24 03:14:37;;;;;;;;;;;19.60;38.20;;;;;;5094105;28;19908;-67
2022/01/24 03:17:06;;;;;;;;;;;19.60;38.20;;;;;;5094089;28;19915;-67
2022/01/24 03:19:32;;;;;;;;;;;19.50;38.20;;;;;;5093983;28;19922;-67
2022/01/24 03:21:57;;;;;;;;;;;19.60;38.20;;;;;;5075683;28;19999;-67
2022/01/24 03:24:23;;;;;;;;;;;19.60;38.20;;;;;;5093884;28;20375;-67
2022/01/24 03:26:48;;;;;;;;;;;19.60;38.20;;;;;;5093807;28;19908;-67
2022/01/24 03:29:14;;;;;;;;;;;19.60;38.20;;;;;;5093887;28;19912;-67
2022/01/24 03:31:40;;;;;;;;;;;19.50;38.20;;;;;;5093761;28;19934;-67
2022/01/24 03:34:05;;;;;;;;;;;19.50;38.20;;;;;;5093808;28;19909;-66
2022/01/24 03:36:31;;;;;;;;;;;19.50;38.10;;;;;;5093774;28;19908;-67
2022/01/24 03:38:57;;;;;;;;;;;19.60;38.20;;;;;;5093742;28;19908;-68
2022/01/24 03:41:22;;;;;;;;;;;19.60;38.20;;;;;;5093873;28;19961;-67
2022/01/24 03:43:48;;;;;;;;;;;19.50;38.20;;;;;;5093613;28;19916;-68
2022/01/24 03:46:26;;;;;;;;;;;19.60;38.20;;;;;;5093717;28;20320;-67
2022/01/24 03:48:55;;;;;;;;;;;19.50;38.20;;;;;;5093767;28;19961;-67
2022/01/24 03:51:21;;;;;;;;;;;19.60;38.10;;;;;;5075506;28;19952;-67
2022/01/24 03:53:47;;;;;;;;;;;19.50;38.20;;;;;;5093560;28;19915;-67
2022/01/24 03:56:13;;;;;;;;;;;19.50;38.20;;;;;;5093510;28;19908;-67
2022/01/24 03:58:39;;;;;;;;;;;19.60;38.20;;;;;;5093333;28;19920;-67
2022/01/24 04:01:06;;;;;;;;;;;19.50;38.10;;;;;;5075525;28;19932;-67
2022/01/24 04:03:32;;;;;;;;;;;19.60;38.10;;;;;;5093359;28;20036;-67
2022/01/24 04:05:57;;;;;;;;;;;19.50;38.20;;;;;;5093499;28;19953;-67
2022/01/24 04:08:23;;;;;;;;;;;19.50;38.20;;;;;;5093358;28;19916;-67
2022/01/24 04:10:52;;;;;;;;;;;19.60;38.10;;;;;;5093408;28;19915;-67
2022/01/24 04:15:59;;;;;;;;;;;19.50;38.20;;;;;;5093400;28;20405;-67
2022/01/24 04:23:39;;;;;;;;;;;19.50;38.20;;;;;;5093237;28;19958;-67
2022/01/24 04:26:05;;;;;;;;;;;19.50;38.10;;;;;;5093232;28;19947;-67
2022/01/24 04:28:30;;;;;;;;;;;19.50;38.10;;;;;;5093142;28;19908;-67
2022/01/24 04:30:56;;;;;;;;;;;19.50;38.20;;;;;;5093238;28;19943;-67
2022/01/24 04:33:21;;;;;;;;;;;19.50;38.10;;;;;;5093155;28;19908;-67
2022/01/24 04:35:47;;;;;;;;;;;19.50;38.10;;;;;;5093104;28;19909;-67
2022/01/24 04:38:12;;;;;;;;;;;19.50;38.10;;;;;;5093170;28;19908;-67
2022/01/24 04:40:38;;;;;;;;;;;19.50;38.10;;;;;;5093121;28;20053;-67
2022/01/24 04:43:34;;;;;;;;;;;19.50;38.10;;;;;;5092952;28;19916;-67
2022/01/24 04:46:01;;;;;;;;;;;19.50;38.20;;;;;;5092069;28;20287;-67
2022/01/24 04:56:33;;;;;;;;;;;19.50;38.10;;;;;;5093194;28;20279;-67
2022/01/24 04:58:58;;;;;;;;;;;19.50;38.10;;;;;;5092878;28;19920;-67
2022/01/24 05:01:24;;;;;;;;;;;19.50;38.10;;;;;;5077016;28;19963;-67
2022/01/24 05:03:49;;;;;;;;;;;19.50;38.10;;;;;;5096420;28;19923;-67
2022/01/24 05:06:15;;;;;;;;;;;19.50;38.10;;;;;;5096730;28;20381;-67
2022/01/24 05:08:40;;;;;;;;;;;19.50;38.10;;;;;;5078280;28;19908;-67
2022/01/24 05:11:10;;;;;;;;;;;19.50;38.10;;;;;;5096447;28;20006;-67
2022/01/24 05:24:36;;;;;;;;;;;19.60;38.10;;;;;;5096127;28;19917;-67
2022/01/24 05:27:01;;;;;;;;;;;19.60;38.10;;;;;;5096152;28;19989;-67
2022/01/24 05:29:27;;;;;;;;;;;19.70;38.00;;;;;;5096036;28;19965;-66
2022/01/24 05:31:53;;;;;;;;;;;19.70;38.00;;;;;;5077923;28;19908;-67
2022/01/24 05:34:18;;;;;;;;;;;19.70;38.00;;;;;;5096263;28;20030;-67
2022/01/24 05:36:44;;;;;;;;;;;19.70;38.00;;;;;;5095921;28;19953;-67
2022/01/24 05:39:11;;;;;;;;;;;19.80;38.00;;;;;;5095858;28;20279;-66
2022/01/24 05:41:37;;;;;;;;;;;19.80;37.90;;;;;;5077667;28;19915;-67
2022/01/24 05:44:03;;;;;;;;;;;19.80;37.90;;;;;;5095626;28;20268;-67
2022/01/24 05:46:29;;;;;;;;;;;19.80;37.90;;;;;;5095916;28;19919;-67
2022/01/24 05:48:54;;;;;;;;;;;19.80;37.80;;;;;;5095598;28;19912;-67
2022/01/24 05:51:20;;;;;;;;;;;19.80;37.80;;;;;;5095601;28;19974;-67
2022/01/24 05:53:46;;;;;;;;;;;19.80;37.80;;;;;;5095581;28;19958;-67
2022/01/24 05:56:11;;;;;;;;;;;19.90;37.80;;;;;;5095734;28;20249;-67
2022/01/24 05:58:37;;;;;;;;;;;19.80;37.70;;;;;;5095110;28;19982;-66
2022/01/24 06:01:02;;;;;;;;;;;19.90;37.80;;;;;;5095350;28;19908;-67
2022/01/24 06:03:28;;;;;;;;;;;19.80;37.70;;;;;;5095161;28;19969;-67
2022/01/24 06:05:53;;;;;;;;;;;19.80;37.70;;;;;;5077237;28;19998;-67
2022/01/24 06:08:19;;;;;;;;;;;19.90;37.70;;;;;;5095240;28;20006;-67
2022/01/24 06:10:46;;;;;;;;;;;19.90;37.80;;;;;;5095297;28;19915;-67
2022/01/24 06:13:12;;;;;;;;;;;19.90;37.80;;;;;;5094112;28;19908;-66
2022/01/24 06:15:37;;;;;;;;;;;19.90;37.70;;;;;;5095091;28;20352;-67
2022/01/24 06:18:03;;;;;;;;;;;19.90;37.80;;;;;;5095049;28;19960;-67
2022/01/24 06:20:28;;;;;;;;;;;19.90;37.80;;;;;;5094987;28;19908;-67
2022/01/24 06:22:54;;;;;;;;;;;19.90;37.80;;;;;;5094816;28;19924;-66
2022/01/24 06:25:24;;;;;;;;;;;19.90;37.80;;;;;;5094853;28;19908;-67
2022/01/24 06:27:50;;;;;;;;;;;19.90;37.80;;;;;;5095114;28;19946;-67
2022/01/24 06:30:15;;;;;;;;;;;19.90;37.80;;;;;;5094795;28;20351;-67
2022/01/24 06:32:41;;;;;;;;;;;19.90;37.80;;;;;;5094658;28;19942;-67
2022/01/24 06:35:08;;;;;;;;;;;19.90;37.90;;;;;;5076751;28;19916;-67
2022/01/24 06:37:33;;;;;;;;;;;19.90;37.90;;;;;;5094435;28;19908;-67
2022/01/24 06:39:59;;;;;;;;;;;19.90;37.70;;;;;;5094545;28;19908;-67
2022/01/24 06:42:24;;;;;;;;;;;19.90;37.80;;;;;;5094738;28;19924;-66
2022/01/24 06:44:50;;;;;;;;;;;20.00;37.70;;;;;;5094587;28;19915;-67
2022/01/24 06:47:16;;;;;;;;;;;20.00;37.70;;;;;;5094487;28;20328;-67
2022/01/24 06:49:41;;;;;;;;;;;19.90;37.70;;;;;;5094389;28;19999;-67
2022/01/24 06:52:07;;;;;;;;;;;20.00;37.80;;;;;;5094252;28;20291;-66
2022/01/24 06:54:36;;;;;;;;;;;20.00;37.70;;;;;;5094618;28;19908;-67
2022/01/24 06:57:02;;;;;;;;;;;20.00;37.70;;;;;;5094337;28;20003;-66
2022/01/24 06:59:27;;;;;;;;;;;19.90;37.80;;;;;;5094252;28;19962;-67
2022/01/24 07:01:53;;;;;;;;;;;20.00;37.60;;;;;;5094450;28;19946;-67
2022/01/24 07:04:18;;;;;;;;;;;20.00;37.70;;;;;;5082740;28;19994;-66
2022/01/24 07:06:43;;;;;;;;;;;19.00;36.70;;;;;;5068937;28;19913;-66
2022/01/24 07:09:09;;;;;;;;;;;18.20;37.50;;;;;;5088007;28;19908;-65
2022/01/24 07:11:34;;;;;;;;;;;18.00;38.10;;;;;;5093612;28;19988;-65
2022/01/24 07:14:05;;;;;;;;;;;17.20;39.10;;;;;;5073314;28;19931;-65
2022/01/24 07:16:48;;;;;;;;;;;16.70;39.80;;;;;;5073432;28;19995;-66
2022/01/24 07:19:13;;;;;;;;;;;16.50;40.10;;;;;;5073129;28;19954;-64
2022/01/24 07:21:38;;;;;;;;;;;16.40;40.50;;;;;;5073318;28;19912;-65
2022/01/24 07:24:04;;;;;;;;;;;17.00;39.20;;;;;;5054467;28;19920;-64
2022/01/24 07:26:30;;;;;;;;;;;17.20;38.50;;;;;;5072748;28;19916;-66
2022/01/24 07:28:55;;;;;;;;;;;17.20;38.30;;;;;;5073258;28;19908;-66
2022/01/24 07:31:20;;;;;;;;;;;17.60;38.60;;;;;;5076809;28;19912;-66
2022/01/24 07:33:46;;;;;;;;;;;18.20;37.60;;;;;;5073777;28;19920;-66
2022/01/24 07:36:11;;;;;;;;;;;18.60;37.50;;;;;;5091716;28;19919;-65
2022/01/24 07:38:37;;;;;;;;;;;18.80;37.30;;;;;;5090035;28;20372;-67
2022/01/24 07:41:02;;;;;;;;;;;19.00;37.00;;;;;;5091868;28;20418;-66
2022/01/24 07:43:28;;;;;;;;;;;19.20;36.90;;;;;;5090252;28;19963;-67
2022/01/24 07:45:53;;;;;;;;;;;19.30;36.70;;;;;;5076732;28;20386;-67
2022/01/24 07:48:19;;;;;;;;;;;19.40;36.70;;;;;;5091802;28;19923;-67
2022/01/24 07:50:46;;;;;;;;;;;19.50;36.70;;;;;;5073373;28;20327;-67
2022/01/24 07:53:13;;;;;;;;;;;19.50;36.50;;;;;;5086527;28;19913;-65
2022/01/24 07:55:39;;;;;;;;;;;19.60;36.60;;;;;;5072642;28;19921;-67
2022/01/24 07:58:05;;;;;;;;;;;19.50;36.70;;;;;;5087050;28;19949;-61
2022/01/24 08:00:31;;;;;;;;;;;19.60;36.60;;;;;;5073369;28;19924;-68
2022/01/24 08:02:59;;;;;;;;;;;19.60;36.60;;;;;;5079840;28;20374;-68
2022/01/24 08:05:25;;;;;;;;;;;19.70;36.70;;;;;;5088712;28;19912;-68
2022/01/24 08:07:51;;;;;;;;;;;19.70;36.60;;;;;;5091030;28;20048;-69
2022/01/24 08:10:16;;;;;;;;;;;19.70;36.80;;;;;;5091224;28;20345;-69
2022/01/24 08:12:44;;;;;;;;;;;19.80;36.80;;;;;;5082109;28;19912;-69
2022/01/24 08:15:12;;;;;;;;;;;19.80;36.80;;;;;;5054053;28;20007;-69
2022/01/24 08:17:37;;;;;;;;;;;19.90;36.80;;;;;;5089800;28;19920;-69
2022/01/24 08:20:03;;;;;;;;;;;19.90;36.90;;;;;;5090698;28;20417;-69
2022/01/24 08:22:29;;;;;;;;;;;19.90;36.90;;;;;;5089944;28;19924;-68
2022/01/24 08:24:54;;;;;;;;;;;19.90;36.90;;;;;;5087911;28;20361;-69
2022/01/24 08:27:20;;;;;;;;;;;20.00;37.00;;;;;;5087058;28;20010;-69
2022/01/24 08:29:47;;;;;;;;;;;19.90;37.00;;;;;;5084949;28;19917;-68
2022/01/24 08:32:13;;;;;;;;;;;19.90;37.00;;;;;;5089889;28;19916;-65
2022/01/24 08:34:38;;;;;;;;;;;20.00;37.00;;;;;;5090984;28;19927;-67
2022/01/24 08:37:04;;;;;;;;;;;20.10;36.90;;;;;;5090673;28;20320;-65
2022/01/24 08:39:30;;;;;;;;;;;20.10;36.90;;;;;;5083579;28;19949;-68
2022/01/24 08:46:49;;;;;;;;;;;20.10;37.00;;;;;;5085833;28;19912;-69
2022/01/24 08:49:15;;;;;;;;;;;20.10;37.00;;;;;;5092757;28;19923;-68
2022/01/24 08:51:41;;;;;;;;;;;20.10;37.00;;;;;;5084857;28;19923;-68
2022/01/24 08:54:07;;;;;;;;;;;20.10;37.00;;;;;;5074463;28;19947;-71
2022/01/24 08:56:32;;;;;;;;;;;20.20;37.00;;;;;;5066593;28;19919;-70
2022/01/24 08:58:58;;;;;;;;;;;20.30;37.10;;;;;;5081735;28;20311;-67
2022/01/24 09:01:23;;;;;;;;;;;20.20;37.30;;;;;;5083170;28;20383;-66
2022/01/24 09:03:49;;;;;;;;;;;20.20;37.50;;;;;;5093886;28;20018;-69
2022/01/24 09:06:17;;;;;;;;;;;20.10;37.60;;;;;;5093633;28;19969;-71
2022/01/24 09:08:43;;;;;;;;;;;20.20;37.60;;;;;;5094258;28;19935;-67
2022/01/24 09:11:09;;;;;;;;;;;20.20;37.80;;;;;;5088771;28;20364;-67
2022/01/24 09:13:34;;;;;;;;;;;20.30;37.60;;;;;;5085543;28;20372;-69
2022/01/24 09:16:00;;;;;;;;;;;20.30;37.70;;;;;;5093657;28;20240;-68
2022/01/24 09:18:26;;;;;;;;;;;20.30;37.70;;;;;;5076058;28;19920;-69
2022/01/24 09:20:52;;;;;;;;;;;20.30;37.80;;;;;;5089823;28;19965;-66
2022/01/24 09:23:18;;;;;;;;;;;20.30;37.80;;;;;;5094062;28;19923;-68
2022/01/24 09:25:44;;;;;;;;;;;20.40;37.80;;;;;;5089578;28;19912;-69
2022/01/24 09:28:09;;;;;;;;;;;20.30;37.90;;;;;;5094335;28;19908;-66
2022/01/24 09:30:35;;;;;;;;;;;20.40;37.90;;;;;;5093792;28;19970;-68
2022/01/24 09:33:00;;;;;;;;;;;20.40;38.00;;;;;;5089366;28;20017;-69
2022/01/24 09:35:28;;;;;;;;;;;20.40;37.90;;;;;;5093223;28;20034;-67
2022/01/24 09:37:54;;;;;;;;;;;20.40;38.00;;;;;;5089089;28;20003;-68
2022/01/24 09:40:20;;;;;;;;;;;20.40;38.00;;;;;;5073559;28;19912;-67
2022/01/24 09:42:46;;;;;;;;;;;20.40;38.10;;;;;;5071831;28;19920;-68
2022/01/24 09:45:12;;;;;;;;;;;20.50;38.00;;;;;;5087842;28;19912;-68
2022/01/24 09:47:38;;;;;;;;;;;20.50;38.10;;;;;;5074970;28;19950;-67
2022/01/24 09:50:05;;;;;;;;;;;20.50;38.20;;;;;;5089029;28;19912;-69
2022/01/24 09:52:30;;;;;;;;;;;20.50;38.30;;;;;;5093203;28;19935;-68
2022/01/24 09:54:56;;;;;;;;;;;20.50;38.30;;;;;;5093967;28;20363;-69
2022/01/24 09:57:21;;;;;;;;;;;20.50;38.30;;;;;;5093074;28;19916;-69
2022/01/24 09:59:47;;;;;;;;;;;20.50;38.30;;;;;;5093511;28;19920;-67
2022/01/24 10:02:12;;;;;;;;;;;20.50;38.40;;;;;;5093174;28;20555;-64
2022/01/24 10:04:37;;;;;;;;;;;20.50;38.40;;;;;;5088931;28;19921;-64
2022/01/24 10:07:08;;;;;;;;;;;20.50;38.50;;;;;;5087048;28;19912;-65
2022/01/24 10:09:36;;;;;;;;;;;20.50;38.60;;;;;;5078829;28;19958;-64
2022/01/24 10:17:41;;;;;;;;;;;20.40;38.50;;;;;;5092829;28;19923;-66
2022/01/24 10:20:19;;;;;;;;;;;20.50;38.60;;;;;;5087792;28;20409;-64
2022/01/24 10:23:03;;;;;;;;;;;20.40;38.60;;;;;;5073778;28;19967;-65
2022/01/24 10:25:30;;;;;;;;;;;20.40;38.60;;;;;;5079382;28;19947;-64
2022/01/24 10:28:05;;;;;;;;;;;20.40;38.60;;;;;;5092610;28;19918;-68
2022/01/24 10:30:32;;;;;;;;;;;20.40;38.60;;;;;;5090277;28;19912;-65
2022/01/24 10:33:00;;;;;;;;;;;20.40;38.50;;;;;;5069939;28;19973;-66
2022/01/24 10:35:25;;;;;;;;;;;20.40;38.50;;;;;;5086159;28;19920;-65
2022/01/24 10:37:53;;;;;;;;;;;20.40;38.50;;;;;;5093098;28;20378;-65
2022/01/24 10:40:31;;;;;;;;;;;20.40;38.50;;;;;;5074916;28;20390;-66
2022/01/24 10:43:15;;;;;;;;;;;20.40;38.50;;;;;;5072433;28;19925;-66
2022/01/24 10:45:43;;;;;;;;;;;20.40;38.50;;;;;;5080271;28;20505;-67
2022/01/24 10:48:08;;;;;;;;;;;20.40;38.40;;;;;;5091171;28;19927;-67
2022/01/24 10:50:34;;;;;;;;;;;20.40;38.40;;;;;;5083304;28;19916;-67
2022/01/24 10:53:08;;;;;;;;;;;20.40;38.30;;;;;;5084568;28;19948;-65
2022/01/24 10:55:34;;;;;;;;;;;20.40;38.40;;;;;;5085000;28;20318;-66
2022/01/24 10:58:06;;;;;;;;;;;20.40;38.60;;;;;;5061585;28;20003;-66
2022/01/24 11:00:31;;;;;;;;;;;20.40;38.60;;;;;;5076157;28;20375;-69
2022/01/24 11:02:59;;;;;;;;;;;20.40;38.70;;;;;;5091883;28;19924;-65
2022/01/24 11:05:35;;;;;;;;;;;20.40;38.70;;;;;;5088010;28;19932;-67
2022/01/24 11:08:03;;;;;;;;;;;20.40;38.70;;;;;;5085369;28;19912;-67
2022/01/24 11:10:57;;;;;;;;;;;20.40;38.70;;;;;;5088170;28;19913;-66
2022/01/24 11:13:29;;;;;;;;;;;20.40;38.60;;;;;;5065675;28;19912;-66
2022/01/24 11:15:58;;;;;;;;;;;20.50;38.50;;;;;;5090207;28;19936;-66
2022/01/24 11:18:24;;;;;;;;;;;20.40;38.60;;;;;;5090490;28;19946;-66
2022/01/24 11:20:50;;;;;;;;;;;20.40;38.60;;;;;;5091368;28;20332;-68
2022/01/24 11:23:21;;;;;;;;;;;20.40;38.60;;;;;;5057496;28;20023;-66
2022/01/24 11:25:47;;;;;;;;;;;20.40;38.60;;;;;;5073075;28;19925;-64
2022/01/24 11:28:13;;;;;;;;;;;20.40;38.60;;;;;;5089534;28;20001;-67
2022/01/24 11:30:42;;;;;;;;;;;20.40;38.60;;;;;;5077879;28;20422;-65
2022/01/24 11:33:09;;;;;;;;;;;20.40;38.60;;;;;;5090960;28;19908;-65
2022/01/24 11:35:40;;;;;;;;;;;20.40;38.50;;;;;;5073157;28;19988;-64
2022/01/24 11:38:25;;;;;;;;;;;20.40;38.40;;;;;;5071673;28;19912;-65
2022/01/24 11:40:57;;;;;;;;;;;20.50;38.50;;;;;;5075075;28;20398;-67
2022/01/24 11:43:23;;;;;;;;;;;20.40;38.60;;;;;;5090829;28;19963;-66
2022/01/24 11:45:59;;;;;;;;;;;20.40;38.60;;;;;;5072256;28;19916;-63
2022/01/24 11:48:25;;;;;;;;;;;20.40;38.60;;;;;;5087338;28;19916;-64
2022/01/24 11:50:58;;;;;;;;;;;20.40;38.60;;;;;;5073828;28;19919;-64
2022/01/24 11:53:28;;;;;;;;;;;20.40;38.50;;;;;;5071459;28;19995;-64
2022/01/24 11:55:55;;;;;;;;;;;20.50;38.50;;;;;;5071993;28;20406;-64
2022/01/24 11:58:27;;;;;;;;;;;20.50;38.60;;;;;;5072126;28;19912;-64
2022/01/24 12:00:55;;;;;;;;;;;20.50;38.60;;;;;;5074864;28;20003;-65
2022/01/24 12:03:23;;;;;;;;;;;20.50;38.60;;;;;;5088096;28;19920;-65
2022/01/24 12:05:51;;;;;;;;;;;20.50;38.50;;;;;;5091061;28;19912;-65
2022/01/24 12:08:28;;;;;;;;;;;20.40;38.60;;;;;;5092222;28;19909;-65
2022/01/24 12:10:58;;;;;;;;;;;20.40;38.60;;;;;;5092371;28;19912;-64
2022/01/24 12:13:29;;;;;;;;;;;20.50;38.60;;;;;;5095713;28;19908;-67
2022/01/24 12:15:55;;;;;;;;;;;20.50;38.50;;;;;;5092089;28;19956;-64
2022/01/24 12:18:27;;;;;;;;;;;20.50;38.50;;;;;;5095306;28;19962;-65
2022/01/24 12:20:57;;;;;;;;;;;20.50;38.50;;;;;;5088857;28;19939;-65
2022/01/24 12:23:27;;;;;;;;;;;20.50;38.50;;;;;;5075409;28;19921;-66
2022/01/24 12:25:58;;;;;;;;;;;20.50;38.60;;;;;;5079231;28;19918;-64
2022/01/24 12:28:26;;;;;;;;;;;20.50;38.60;;;;;;5079518;28;20268;-64
2022/01/24 12:31:03;;;;;;;;;;;20.40;38.50;;;;;;5095015;28;19955;-65
2022/01/24 12:33:29;;;;;;;;;;;20.50;38.60;;;;;;5074516;28;19985;-65
2022/01/24 12:35:54;;;;;;;;;;;20.50;38.70;;;;;;5088729;28;20371;-64
2022/01/24 12:38:20;;;;;;;;;;;20.40;38.70;;;;;;5094335;28;19919;-64
2022/01/24 12:40:46;;;;;;;;;;;20.50;38.70;;;;;;5094304;28;20367;-64
2022/01/24 12:43:19;;;;;;;;;;;20.50;38.80;;;;;;5094978;28;19923;-63
2022/01/24 12:48:29;;;;;;;;;;;20.40;38.70;;;;;;5090397;28;19923;-63
2022/01/24 12:50:54;;;;;;;;;;;20.50;38.70;;;;;;5066242;28;20447;-64
2022/01/24 12:53:21;;;;;;;;;;;20.50;38.70;;;;;;5087198;28;20326;-64
2022/01/24 12:55:56;;;;;;;;;;;20.40;38.70;;;;;;5069859;28;19912;-64
2022/01/24 12:58:29;;;;;;;;;;;20.50;38.60;;;;;;5085574;28;20019;-64
2022/01/24 13:00:55;;;;;;;;;;;20.50;38.60;;;;;;5074207;28;19951;-64
2022/01/24 13:03:20;;;;;;;;;;;20.50;38.50;;;;;;5074219;28;20367;-64
2022/01/24 13:05:46;;;;;;;;;;;20.50;38.50;;;;;;5079734;28;19965;-64
2022/01/24 13:08:14;;;;;;;;;;;20.50;38.50;;;;;;5093577;28;19962;-63
2022/01/24 13:10:40;;;;;;;;;;;20.50;38.50;;;;;;5076100;28;19908;-62
2022/01/24 13:13:10;;;;;;;;;;;20.50;38.60;;;;;;5073506;28;20275;-64
2022/01/24 13:23:35;;;;;;;;;;;20.50;38.50;;;;;;5092807;28;20443;-64
2022/01/24 13:26:04;;;;;;;;;;;20.50;38.50;;;;;;5079679;28;20375;-64
2022/01/24 13:28:30;;;;;;;;;;;20.50;38.60;;;;;;5093207;28;19908;-63
2022/01/24 13:31:01;;;;;;;;;;;20.50;38.50;;;;;;5077628;28;20298;-64
2022/01/24 13:33:28;;;;;;;;;;;20.60;38.50;;;;;;5075452;28;20007;-65
2022/01/24 13:35:55;;;;;;;;;;;20.50;38.50;;;;;;5092539;28;19916;-64
2022/01/24 13:38:28;;;;;;;;;;;20.50;38.60;;;;;;5094319;28;20018;-65
2022/01/24 13:41:11;;;;;;;;;;;20.50;38.60;;;;;;5074779;28;19912;-63
2022/01/24 13:43:39;;;;;;;;;;;20.60;38.60;;;;;;5091701;28;19923;-64
2022/01/24 13:46:10;;;;;;;;;;;20.50;38.60;;;;;;5079470;28;19916;-63
2022/01/24 13:48:38;;;;;;;;;;;20.50;38.60;;;;;;5073653;28;20007;-64
2022/01/24 13:51:04;;;;;;;;;;;20.50;38.60;;;;;;5089687;28;19916;-62
2022/01/24 13:53:30;;;;;;;;;;;20.60;38.60;;;;;;5072940;28;19985;-63
2022/01/24 13:55:56;;;;;;;;;;;20.50;38.60;;;;;;5077067;28;19928;-64
2022/01/24 13:58:27;;;;;;;;;;;20.50;38.60;;;;;;5073300;28;19945;-62
2022/01/24 14:00:59;;;;;;;;;;;20.50;38.60;;;;;;5075234;28;19916;-62
2022/01/24 14:03:25;;;;;;;;;;;20.50;38.60;;;;;;5093433;28;19919;-62
2022/01/24 14:06:10;;;;;;;;;;;20.60;38.60;;;;;;5092740;28;19916;-62
2022/01/24 14:08:35;;;;;;;;;;;20.50;38.60;;;;;;5093401;28;19958;-61
2022/01/24 14:11:12;;;;;;;;;;;20.50;38.60;;;;;;5091999;28;19949;-61
2022/01/24 14:13:38;;;;;;;;;;;20.50;38.60;;;;;;5091584;28;20366;-61
2022/01/24 14:16:10;;;;;;;;;;;20.50;38.50;;;;;;5077772;28;19920;-61
2022/01/24 14:18:36;;;;;;;;;;;20.50;38.50;;;;;;5093704;28;19969;-61
2022/01/24 14:21:09;;;;;;;;;;;20.50;38.60;;;;;;5091409;28;20340;-62
2022/01/24 14:23:36;;;;;;;;;;;20.50;38.60;;;;;;5091579;28;20488;-61
2022/01/24 14:26:18;;;;;;;;;;;20.60;38.60;;;;;;5091280;28;19965;-61
2022/01/24 14:28:44;;;;;;;;;;;20.50;38.50;;;;;;5072832;28;19908;-61
2022/01/24 14:31:12;;;;;;;;;;;20.60;38.60;;;;;;5077795;28;19973;-60
2022/01/24 14:33:38;;;;;;;;;;;20.60;38.50;;;;;;5073041;28;19913;-61
2022/01/24 14:36:12;;;;;;;;;;;20.60;38.50;;;;;;5082215;28;19916;-63
2022/01/24 14:38:47;;;;;;;;;;;20.60;38.50;;;;;;5081008;28;19959;-62
2022/01/24 14:41:18;;;;;;;;;;;20.50;38.60;;;;;;5090919;28;19912;-62
2022/01/24 14:46:30;;;;;;;;;;;20.60;38.60;;;;;;5090499;28;19953;-62
2022/01/24 14:48:57;;;;;;;;;;;20.60;38.50;;;;;;5074587;28;20364;-63
2022/01/24 14:51:26;;;;;;;;;;;20.60;38.60;;;;;;5092479;28;20398;-63
2022/01/24 14:53:52;;;;;;;;;;;20.60;38.50;;;;;;5089743;28;19912;-63
2022/01/24 14:56:18;;;;;;;;;;;20.60;38.50;;;;;;5079741;28;19923;-63
2022/01/24 14:58:44;;;;;;;;;;;20.60;38.60;;;;;;5075082;28;20339;-62
2022/01/24 15:01:09;;;;;;;;;;;20.60;38.50;;;;;;5079608;28;19946;-62
2022/01/24 15:03:35;;;;;;;;;;;20.60;38.50;;;;;;5071639;28;19927;-62
2022/01/24 15:06:02;;;;;;;;;;;20.60;38.60;;;;;;5079859;28;19924;-62
2022/01/24 15:08:28;;;;;;;;;;;20.60;38.50;;;;;;5077052;28;20004;-63
2022/01/24 15:10:53;;;;;;;;;;;20.60;38.50;;;;;;5081383;28;20002;-61
2022/01/24 15:13:22;;;;;;;;;;;20.60;38.60;;;;;;5059744;28;19913;-62
2022/01/24 15:15:57;;;;;;;;;;;20.60;38.50;;;;;;5084672;28;19915;-61
2022/01/24 15:26:23;;;;;;;;;;;20.60;38.40;;;;;;5080877;28;19912;-63
2022/01/24 15:28:48;;;;;;;;;;;20.60;38.50;;;;;;5085678;28;19919;-62
2022/01/24 15:31:13;;;;;;;;;;;20.60;38.50;;;;;;5084418;28;20378;-61
2022/01/24 15:33:39;;;;;;;;;;;20.60;38.50;;;;;;5091533;28;20352;-61
2022/01/24 15:36:05;;;;;;;;;;;20.60;38.50;;;;;;5080048;28;19916;-63
2022/01/24 15:38:30;;;;;;;;;;;20.60;38.50;;;;;;5090376;28;19912;-64
2022/01/24 15:40:55;;;;;;;;;;;20.60;38.50;;;;;;5091789;28;19952;-61
2022/01/24 15:46:13;;;;;;;;;;;20.50;38.60;;;;;;5085446;28;19965;-62
2022/01/24 15:48:39;;;;;;;;;;;20.50;38.60;;;;;;5072409;28;19919;-61
2022/01/24 15:51:11;;;;;;;;;;;20.50;38.60;;;;;;5078947;28;20342;-62
2022/01/24 15:53:37;;;;;;;;;;;20.50;38.60;;;;;;5092205;28;19919;-62
2022/01/24 15:57:39;;;;;;;;;;;20.50;38.70;;;;;;5081327;28;19920;-62
2022/01/24 15:59:02;;;;;;;;;;;20.50;38.60;;;;;;5090104;28;20440;-63
2022/01/24 16:01:27;;;;;;;;;;;20.50;38.60;;;;;;5082620;28;19912;-62
2022/01/24 16:03:54;;;;;;;;;;;20.50;38.50;;;;;;5090964;28;19920;-63
2022/01/24 16:06:20;;;;;;;;;;;20.50;38.60;;;;;;5073608;28;19912;-63
2022/01/24 16:08:46;;;;;;;;;;;20.50;38.70;;;;;;5073426;28;19919;-64
2022/01/24 16:11:11;;;;;;;;;;;20.50;38.70;;;;;;5085910;28;19912;-64
2022/01/24 16:13:37;;;;;;;;;;;20.50;38.60;;;;;;5090518;28;19985;-65
2022/01/24 16:16:04;;;;;;;;;;;20.60;38.50;;;;;;5091762;28;19912;-64
2022/01/24 16:18:31;;;;;;;;;;;20.50;38.50;;;;;;5092073;28;20356;-64
2022/01/24 16:23:30;;;;;;;;;;;20.50;38.60;;;;;;5092199;28;20367;-65
2022/01/24 16:25:56;;;;;;;;;;;20.50;38.60;;;;;;5091817;28;20367;-65